Home > Products > Valid Products > TAF

000
FTUS42 KGSP 050928 AAB
TAFGSP
TAF AMD
KGSP 050928Z 0509/0606 23007KT P6SM BKN009
     FM051200 22009KT P6SM VCSH BKN040 BKN120
     FM051600 22010G17KT P6SM -SHRA VCTS SCT040CB BKN100
     FM052100 22012G19KT P6SM VCSH SCT040 BKN080 PROB30 0521/0524
      4SM TSRA BKN040CB
     FM060000 22006KT P6SM BKN090=



000
FTUS42 KGSP 050904 CCA
TAFCLT
TAF COR
KCLT 050904Z 0509/0606 22004KT P6SM SCT120 BKN250
      TEMPO 0511/0514 P6SM -SHRA BKN025
     FM051500 22008G17KT P6SM VCSH SCT060 BKN250 PROB30 0518/0524
      4SM TSRA BKN040CB
     FM060000 19005KT P6SM BKN200=



000
FTUS42 KGSP 050904 CCA
TAFCLT
TAF COR
KCLT 050904Z 0509/0606 22004KT P6SM SCT120 BKN250
      TEMPO 0511/0514 P6SM -SHRA BKN025
     FM051500 22008G17KT P6SM VCSH SCT060 BKN250 PROB30 0518/0524
      4SM TSRA BKN040CB
     FM060000 19005KT P6SM BKN200=



000
FTUS42 KGSP 050838 AAA
TAFCLT
TAF AMD
KCLT 050838Z 0509/0606 22004KT P6SM SCT120 BKN250
      TEMPO 0511/0514 P6SM -SHRA BKN025
     FM051500 22008G17KT P6SM SCT060 BKN250 PROB30 0518/0524 4SM
      TSRA BKN040CB
     FM060000 19005KT P6SM BKN200=



000
FTUS42 KGSP 050838 AAA
TAFCLT
TAF AMD
KCLT 050838Z 0509/0606 22004KT P6SM SCT120 BKN250
      TEMPO 0511/0514 P6SM -SHRA BKN025
     FM051500 22008G17KT P6SM SCT060 BKN250 PROB30 0518/0524 4SM
      TSRA BKN040CB
     FM060000 19005KT P6SM BKN200=



000
FTUS42 KGSP 050838 AAA
TAFCLT
TAF AMD
KCLT 050838Z 0509/0606 22004KT P6SM SCT120 BKN250
      TEMPO 0511/0514 P6SM -SHRA BKN025
     FM051500 22008G17KT P6SM SCT060 BKN250 PROB30 0518/0524 4SM
      TSRA BKN040CB
     FM060000 19005KT P6SM BKN200=



000
FTUS42 KGSP 050838 AAA
TAFCLT
TAF AMD
KCLT 050838Z 0509/0606 22004KT P6SM SCT120 BKN250
      TEMPO 0511/0514 P6SM -SHRA BKN025
     FM051500 22008G17KT P6SM SCT060 BKN250 PROB30 0518/0524 4SM
      TSRA BKN040CB
     FM060000 19005KT P6SM BKN200=



000
FTUS42 KGSP 050723 AAB
TAFGSP
TAF AMD
KGSP 050723Z 0507/0606 23007KT P6SM VCSH SCT009 BKN015 BKN250
     FM051200 22009KT P6SM VCSH BKN040 BKN120
     FM051600 22010G17KT P6SM -SHRA VCTS SCT040CB BKN100
     FM052100 22012G19KT P6SM VCSH SCT040 BKN080 PROB30 0521/0524
      4SM TSRA BKN040CB
     FM060000 22006KT P6SM BKN090=



000
FTUS42 KGSP 050533
TAFAVL
TAF
KAVL 050533Z 0506/0606 00000KT P6SM VCSH BKN100
     FM050700 00000KT 5SM -SHRA BR VCTS OVC030CB
     FM051100 19003KT 3SM -SHRA BR VCTS OVC030CB
     FM051300 18005KT P6SM VCSH OVC030
     FM051800 18008KT P6SM -SHRA VCTS BKN035CB OVC120
     FM060300 32003KT P6SM BKN035=



000
FTUS42 KGSP 050533
TAFGSP
TAF
KGSP 050533Z 0506/0606 23007KT P6SM BKN120 BKN250
     FM051200 22009KT P6SM VCSH BKN040 BKN120
     FM051600 22010G17KT P6SM -SHRA VCTS SCT040CB BKN100
     FM052100 22012G19KT P6SM VCSH SCT040 BKN080 PROB30 0521/0524
      4SM TSRA BKN040CB
     FM060000 22006KT P6SM BKN090=



000
FTUS42 KGSP 050533
TAFCLT
TAF
KCLT 050533Z 0506/0606 22004KT P6SM SCT120 BKN250
      TEMPO 0511/0514 5SM -SHRA BR BKN120
     FM051500 22008G17KT P6SM SCT060 BKN250 PROB30 0518/0524 4SM
      TSRA BKN040CB
     FM060000 19005KT P6SM BKN200=



000
FTUS42 KGSP 050222 AAA
TAFAVL
TAF AMD
KAVL 050222Z 0502/0524 34005KT P6SM VCSH SCT040 BKN120
     FM050600 33004KT 4SM -SHRA BR BKN010 OVC030
     FM051300 19005KT P6SM BKN040 PROB30 0518/0522 TSRA BKN040CB=



000
FTUS42 KGSP 050222 AAA
TAFAVL
TAF AMD
KAVL 050222Z 0502/0524 34005KT P6SM VCSH SCT040 BKN120
     FM050600 33004KT 4SM -SHRA BR BKN010 OVC030
     FM051300 19005KT P6SM BKN040 PROB30 0518/0522 TSRA BKN040CB=



000
FTUS42 KGSP 042328
TAFCLT
TAF
KCLT 042328Z 0500/0524 25008KT P6SM FEW050 BKN100
     FM050900 23003KT P6SM FEW020 BKN080
     FM051500 22007KT P6SM FEW050 BKN100
     FM051800 23008G16KT P6SM SCT060 BKN120 PROB30 0518/0522 TSRA
      BKN050CB=



000
FTUS42 KGSP 042328
TAFGSP
TAF
KGSP 042328Z 0500/0524 24008KT P6SM SCT050
     FM050700 23003KT P6SM SCT020 OVC100
     FM051200 23008KT P6SM VCSH BKN070 PROB30 0512/0515 SHRA
     FM051700 22008G18KT P6SM SCT060 BKN120=



000
FTUS42 KGSP 042328
TAFAVL
TAF
KAVL 042328Z 0500/0524 34005KT P6SM SCT040
     FM050800 33004KT 4SM -SHRA BR BKN010 OVC030
     FM051400 19005KT P6SM BKN040 PROB30 0518/0522 TSRA BKN040CB=



000
FTUS42 KGSP 042328
TAFGSP
TAF
KGSP 042328Z 0500/0524 24008KT P6SM SCT050
     FM050700 23003KT P6SM SCT020 OVC100
     FM051200 23008KT P6SM VCSH BKN070 PROB30 0512/0515 SHRA
     FM051700 22008G18KT P6SM SCT060 BKN120=



000
FTUS42 KGSP 042328
TAFCLT
TAF
KCLT 042328Z 0500/0524 25008KT P6SM FEW050 BKN100
     FM050900 23003KT P6SM FEW020 BKN080
     FM051500 22007KT P6SM FEW050 BKN100
     FM051800 23008G16KT P6SM SCT060 BKN120 PROB30 0518/0522 TSRA
      BKN050CB=



000
FTUS42 KGSP 042328
TAFCLT
TAF
KCLT 042328Z 0500/0524 25008KT P6SM FEW050 BKN100
     FM050900 23003KT P6SM FEW020 BKN080
     FM051500 22007KT P6SM FEW050 BKN100
     FM051800 23008G16KT P6SM SCT060 BKN120 PROB30 0518/0522 TSRA
      BKN050CB=



000
FTUS42 KGSP 042328
TAFAVL
TAF
KAVL 042328Z 0500/0524 34005KT P6SM SCT040
     FM050800 33004KT 4SM -SHRA BR BKN010 OVC030
     FM051400 19005KT P6SM BKN040 PROB30 0518/0522 TSRA BKN040CB=



000
FTUS42 KGSP 042328
TAFAVL
TAF
KAVL 042328Z 0500/0524 34005KT P6SM SCT040
     FM050800 33004KT 4SM -SHRA BR BKN010 OVC030
     FM051400 19005KT P6SM BKN040 PROB30 0518/0522 TSRA BKN040CB=



000
FTUS42 KGSP 042328
TAFCLT
TAF
KCLT 042328Z 0500/0524 25008KT P6SM FEW050 BKN100
     FM050900 23003KT P6SM FEW020 BKN080
     FM051500 22007KT P6SM FEW050 BKN100
     FM051800 23008G16KT P6SM SCT060 BKN120 PROB30 0518/0522 TSRA
      BKN050CB=



000
FTUS42 KGSP 042328
TAFAVL
TAF
KAVL 042328Z 0500/0524 34005KT P6SM SCT040
     FM050800 33004KT 4SM -SHRA BR BKN010 OVC030
     FM051400 19005KT P6SM BKN040 PROB30 0518/0522 TSRA BKN040CB=



000
FTUS42 KGSP 042056 AAA
TAFCLT
TAF AMD
KCLT 042056Z 0421/0518 25010KT P6SM SCT050 BKN150
      TEMPO 0421/0423 25008G16KT 6SM -SHRA BKN050
     FM050100 24005KT P6SM FEW050 BKN100
     FM050900 23003KT P6SM FEW020 BKN080
     FM051500 22007KT P6SM FEW050 BKN100=



000
FTUS42 KGSP 042056 AAA
TAFCLT
TAF AMD
KCLT 042056Z 0421/0518 25010KT P6SM SCT050 BKN150
      TEMPO 0421/0423 25008G16KT 6SM -SHRA BKN050
     FM050100 24005KT P6SM FEW050 BKN100
     FM050900 23003KT P6SM FEW020 BKN080
     FM051500 22007KT P6SM FEW050 BKN100=



000
FTUS42 KGSP 041724
TAFAVL
TAF
KAVL 041724Z 0418/0518 19007KT P6SM -SHRA SCT015 BKN040 OVC060
     FM042200 30005KT P6SM -SHRA OVC035
     FM050600 31004KT 4SM -SHRA BR BKN010 OVC030
     FM051500 22005KT P6SM -SHRA VCTS OVC040CB=



000
FTUS42 KGSP 041724
TAFCLT
TAF
KCLT 041724Z 0418/0518 24013G22KT P6SM VCSH SCT050 BKN100
      TEMPO 0419/0423 -SHRA BKN050
     FM050100 24005KT P6SM FEW050 BKN100
     FM050900 23003KT P6SM FEW020 BKN080
     FM051500 22007KT P6SM FEW050 BKN100=



000
FTUS42 KGSP 041724
TAFGSP
TAF
KGSP 041724Z 0418/0518 24013G21KT P6SM -SHRA SCT050 BKN100
     FM042300 24008KT P6SM VCSH BKN060
     FM050700 23003KT P6SM SCT020 OVC100
     FM051500 23008KT P6SM VCSH BKN070=



000
FTUS42 KGSP 041724
TAFCLT
TAF
KCLT 041724Z 0418/0518 24013G22KT P6SM VCSH SCT050 BKN100
      TEMPO 0419/0423 -SHRA BKN050
     FM050100 24005KT P6SM FEW050 BKN100
     FM050900 23003KT P6SM FEW020 BKN080
     FM051500 22007KT P6SM FEW050 BKN100=



000
FTUS42 KGSP 041724
TAFAVL
TAF
KAVL 041724Z 0418/0518 19007KT P6SM -SHRA SCT015 BKN040 OVC060
     FM042200 30005KT P6SM -SHRA OVC035
     FM050600 31004KT 4SM -SHRA BR BKN010 OVC030
     FM051500 22005KT P6SM -SHRA VCTS OVC040CB=



000
FTUS42 KGSP 041457 AAA
TAFCLT
TAF AMD
KCLT 041457Z 0415/0512 24015G24KT P6SM VCSH SCT035 BKN080
      TEMPO 0419/0423 -SHRA BKN035 OVC060
     FM050100 23005KT P6SM SCT060 BKN150=



000
FTUS42 KGSP 041457 AAA
TAFCLT
TAF AMD
KCLT 041457Z 0415/0512 24015G24KT P6SM VCSH SCT035 BKN080
      TEMPO 0419/0423 -SHRA BKN035 OVC060
     FM050100 23005KT P6SM SCT060 BKN150=



000
FTUS42 KGSP 041403 AAB
TAFGSP
TAF AMD
KGSP 041403Z 0414/0512 23015G25KT P6SM VCSH SCT035 BKN070
     FM042100 24014G24KT P6SM -SHRA VCTS SCT040 BKN120CB
     FM050000 23007KT P6SM BKN110 OVC250
     FM050800 23003KT P6SM BKN120 OVC250=



000
FTUS42 KGSP 041208 AAA
TAFAVL
TAF AMD
KAVL 041208Z 0412/0512 23003KT P6SM -SHRA SCT010 OVC080
     FM041500 22005KT P6SM VCSH OVC035
     FM042100 21004KT P6SM -SHRA VCTS SCT040 BKN080CB
     FM050200 00000KT P6SM BKN060 OVC250
     FM050800 00000KT P6SM OVC025=



000
FTUS42 KGSP 041208 AAA
TAFAVL
TAF AMD
KAVL 041208Z 0412/0512 23003KT P6SM -SHRA SCT010 OVC080
     FM041500 22005KT P6SM VCSH OVC035
     FM042100 21004KT P6SM -SHRA VCTS SCT040 BKN080CB
     FM050200 00000KT P6SM BKN060 OVC250
     FM050800 00000KT P6SM OVC025=



000
FTUS42 KGSP 041208 AAA
TAFAVL
TAF AMD
KAVL 041208Z 0412/0512 23003KT P6SM -SHRA SCT010 OVC080
     FM041500 22005KT P6SM VCSH OVC035
     FM042100 21004KT P6SM -SHRA VCTS SCT040 BKN080CB
     FM050200 00000KT P6SM BKN060 OVC250
     FM050800 00000KT P6SM OVC025=



000
FTUS42 KGSP 041208 AAA
TAFAVL
TAF AMD
KAVL 041208Z 0412/0512 23003KT P6SM -SHRA SCT010 OVC080
     FM041500 22005KT P6SM VCSH OVC035
     FM042100 21004KT P6SM -SHRA VCTS SCT040 BKN080CB
     FM050200 00000KT P6SM BKN060 OVC250
     FM050800 00000KT P6SM OVC025=



000
FTUS42 KGSP 041204 AAA
TAFGSP
TAF AMD
KGSP 041204Z 0412/0512 23010KT P6SM -SHRA SCT025 OVC060
     FM041500 23013G20KT P6SM VCSH SCT035 BKN070
     FM042100 24014G24KT P6SM -SHRA VCTS SCT040 BKN120CB
     FM050000 23007KT P6SM BKN110 OVC250
     FM050800 23003KT P6SM BKN120 OVC250=



000
FTUS42 KGSP 041204 AAA
TAFGSP
TAF AMD
KGSP 041204Z 0412/0512 23010KT P6SM -SHRA SCT025 OVC060
     FM041500 23013G20KT P6SM VCSH SCT035 BKN070
     FM042100 24014G24KT P6SM -SHRA VCTS SCT040 BKN120CB
     FM050000 23007KT P6SM BKN110 OVC250
     FM050800 23003KT P6SM BKN120 OVC250=



000
FTUS42 KGSP 041125
TAFAVL
TAF
KAVL 041125Z 0412/0512 23003KT P6SM -SHRA OVC025
     FM041500 22005KT P6SM VCSH OVC035
     FM042100 21004KT P6SM -SHRA VCTS SCT040 BKN080CB
     FM050200 00000KT P6SM BKN060 OVC250
     FM050800 00000KT P6SM OVC025=



000
FTUS42 KGSP 041125
TAFGSP
TAF
KGSP 041125Z 0412/0512 23010KT P6SM -SHRA BKN025 OVC060
     FM041500 23013G20KT P6SM BKN070
     FM042100 24014G24KT P6SM -SHRA VCTS SCT040 BKN120CB
     FM050000 23007KT P6SM BKN110 OVC250
     FM050800 23003KT P6SM BKN120 OVC250=



000
FTUS42 KGSP 041125
TAFCLT
TAF
KCLT 041125Z 0412/0512 24013G18KT P6SM FEW025 BKN110
      TEMPO 0412/0416 P6SM -SHRA BKN030
     FM041800 24014G17KT P6SM SCT040 BKN070
     FM042000 25015G20KT P6SM VCSH SCT040 BKN100 PROB30 0421/0424
      4SM TSRA BKN040CB
     FM050200 22005KT P6SM BKN110 OVC250=



000
FTUS42 KGSP 041125
TAFCLT
TAF
KCLT 041125Z 0412/0512 24013G18KT P6SM FEW025 BKN110
      TEMPO 0412/0416 P6SM -SHRA BKN030
     FM041800 24014G17KT P6SM SCT040 BKN070
     FM042000 25015G20KT P6SM VCSH SCT040 BKN100 PROB30 0421/0424
      4SM TSRA BKN040CB
     FM050200 22005KT P6SM BKN110 OVC250=



000
FTUS42 KGSP 041125
TAFAVL
TAF
KAVL 041125Z 0412/0512 23003KT P6SM -SHRA OVC025
     FM041500 22005KT P6SM VCSH OVC035
     FM042100 21004KT P6SM -SHRA VCTS SCT040 BKN080CB
     FM050200 00000KT P6SM BKN060 OVC250
     FM050800 00000KT P6SM OVC025=



000
FTUS42 KGSP 041125
TAFAVL
TAF
KAVL 041125Z 0412/0512 23003KT P6SM -SHRA OVC025
     FM041500 22005KT P6SM VCSH OVC035
     FM042100 21004KT P6SM -SHRA VCTS SCT040 BKN080CB
     FM050200 00000KT P6SM BKN060 OVC250
     FM050800 00000KT P6SM OVC025=



000
FTUS42 KGSP 041125
TAFCLT
TAF
KCLT 041125Z 0412/0512 24013G18KT P6SM FEW025 BKN110
      TEMPO 0412/0416 P6SM -SHRA BKN030
     FM041800 24014G17KT P6SM SCT040 BKN070
     FM042000 25015G20KT P6SM VCSH SCT040 BKN100 PROB30 0421/0424
      4SM TSRA BKN040CB
     FM050200 22005KT P6SM BKN110 OVC250=



000
FTUS42 KGSP 041125
TAFGSP
TAF
KGSP 041125Z 0412/0512 23010KT P6SM -SHRA BKN025 OVC060
     FM041500 23013G20KT P6SM BKN070
     FM042100 24014G24KT P6SM -SHRA VCTS SCT040 BKN120CB
     FM050000 23007KT P6SM BKN110 OVC250
     FM050800 23003KT P6SM BKN120 OVC250=



000
FTUS42 KGSP 041125
TAFCLT
TAF
KCLT 041125Z 0412/0512 24013G18KT P6SM FEW025 BKN110
      TEMPO 0412/0416 P6SM -SHRA BKN030
     FM041800 24014G17KT P6SM SCT040 BKN070
     FM042000 25015G20KT P6SM VCSH SCT040 BKN100 PROB30 0421/0424
      4SM TSRA BKN040CB
     FM050200 22005KT P6SM BKN110 OVC250=



000
FTUS42 KGSP 041125
TAFAVL
TAF
KAVL 041125Z 0412/0512 23003KT P6SM -SHRA OVC025
     FM041500 22005KT P6SM VCSH OVC035
     FM042100 21004KT P6SM -SHRA VCTS SCT040 BKN080CB
     FM050200 00000KT P6SM BKN060 OVC250
     FM050800 00000KT P6SM OVC025=



000
FTUS42 KGSP 040859 AAB
TAFGSP
TAF AMD
KGSP 040859Z 0409/0506 24006KT P6SM VCSH SCT035 BKN120
      TEMPO 0409/0412 5SM -SHRA BR BKN025
     FM041200 23010G18KT P6SM -SHRA VCTS OVC035CB
     FM041600 23015G25KT P6SM -SHRA BKN040 PROB30 0418/0422 4SM TSRA
      BKN030CB
     FM042200 24014G24KT P6SM VCTS BKN060CB
     FM050000 25009KT P6SM BKN220=



000
FTUS42 KGSP 040857 AAA
TAFCLT
TAF AMD
KCLT 040857Z 0409/0506 24007KT P6SM BKN100 OVC150
     FM041200 25011G18KT P6SM VCSH BKN050
      TEMPO 0413/0417 4SM TSRA BKN040CB
     FM041700 24014G22KT P6SM BKN050 PROB30 0420/0424 4SM TSRA
      BKN040CB
     FM050000 25007KT P6SM BKN200
     FM050200 22004KT P6SM BKN250=



000
FTUS42 KGSP 040857 AAA
TAFCLT
TAF AMD
KCLT 040857Z 0409/0506 24007KT P6SM BKN100 OVC150
     FM041200 25011G18KT P6SM VCSH BKN050
      TEMPO 0413/0417 4SM TSRA BKN040CB
     FM041700 24014G22KT P6SM BKN050 PROB30 0420/0424 4SM TSRA
      BKN040CB
     FM050000 25007KT P6SM BKN200
     FM050200 22004KT P6SM BKN250=



000
FTUS42 KGSP 040857 AAA
TAFCLT
TAF AMD
KCLT 040857Z 0409/0506 24007KT P6SM BKN100 OVC150
     FM041200 25011G18KT P6SM VCSH BKN050
      TEMPO 0413/0417 4SM TSRA BKN040CB
     FM041700 24014G22KT P6SM BKN050 PROB30 0420/0424 4SM TSRA
      BKN040CB
     FM050000 25007KT P6SM BKN200
     FM050200 22004KT P6SM BKN250=



000
FTUS42 KGSP 040810 AAA
TAFAVL
TAF AMD
KAVL 040810Z 0408/0506 21003KT P6SM VCSH BKN070
     FM040900 22005KT P6SM -SHRA BKN050
     FM041100 22006KT 4SM -SHRA VCTS BKN024CB
     FM041500 22009KT P6SM -SHRA VCTS OVC022CB
     FM041800 25008KT P6SM -SHRA VCTS OVC050CB
     FM050200 00000KT P6SM BKN080 OVC250=



000
FTUS42 KGSP 040810 AAA
TAFAVL
TAF AMD
KAVL 040810Z 0408/0506 21003KT P6SM VCSH BKN070
     FM040900 22005KT P6SM -SHRA BKN050
     FM041100 22006KT 4SM -SHRA VCTS BKN024CB
     FM041500 22009KT P6SM -SHRA VCTS OVC022CB
     FM041800 25008KT P6SM -SHRA VCTS OVC050CB
     FM050200 00000KT P6SM BKN080 OVC250=



000
FTUS42 KGSP 040550 CCA
TAFCLT
TAF COR
KCLT 040550Z 0406/0506 23007KT P6SM SCT120 BKN250
     FM041200 25011G18KT P6SM VCSH BKN050
      TEMPO 0413/0417 4SM TSRA BKN040CB
     FM041700 24014G22KT P6SM BKN050 PROB30 0417/0423 4SM TSRA
      BKN040CB
     FM042300 25007KT P6SM BKN200
     FM050200 22004KT P6SM BKN250=



000
FTUS42 KGSP 040550 CCA
TAFCLT
TAF COR
KCLT 040550Z 0406/0506 23007KT P6SM SCT120 BKN250
     FM041200 25011G18KT P6SM VCSH BKN050
      TEMPO 0413/0417 4SM TSRA BKN040CB
     FM041700 24014G22KT P6SM BKN050 PROB30 0417/0423 4SM TSRA
      BKN040CB
     FM042300 25007KT P6SM BKN200
     FM050200 22004KT P6SM BKN250=



000
FTUS42 KGSP 040537
TAFAVL
TAF
KAVL 040537Z 0406/0506 22007KT P6SM BKN050
     FM040900 22005KT P6SM -SHRA BKN050
     FM041100 22006KT 4SM -SHRA VCTS BKN024CB
     FM041500 22009KT P6SM -SHRA VCTS OVC022CB
     FM041800 25008KT P6SM -SHRA VCTS OVC050CB
     FM050200 00000KT P6SM BKN080 OVC250=



000
FTUS42 KGSP 040537
TAFCLT
TAF
KCLT 040537Z 0406/0506 23008KT P6SM SCT080 BKN250
     FM041200 25011G18KT P6SM VCSH BKN050
      TEMPO 0413/0417 4SM TSRA BKN040CB
     FM041700 24014G22KT P6SM BKN050 PROB30 0417/0423 4SM TSRA
      BKN040CB
     FM042300 25007KT P6SM BKN200
     FM050200 22004KT P6SM BKN250=



000
FTUS42 KGSP 040537
TAFGSP
TAF
KGSP 040537Z 0406/0506 24009KT P6SM FEW070 BKN120
     FM041200 23010G18KT P6SM -SHRA VCTS OVC035CB
     FM041600 23015G25KT P6SM -SHRA BKN040 PROB30 0416/0422 4SM TSRA
      BKN030CB
     FM042200 24014G24KT P6SM VCTS BKN060CB
     FM050000 25009KT P6SM BKN220=



000
FTUS42 KGSP 040537
TAFCLT
TAF
KCLT 040537Z 0406/0506 23008KT P6SM SCT080 BKN250
     FM041200 25011G18KT P6SM VCSH BKN050
      TEMPO 0413/0417 4SM TSRA BKN040CB
     FM041700 24014G22KT P6SM BKN050 PROB30 0417/0423 4SM TSRA
      BKN040CB
     FM042300 25007KT P6SM BKN200
     FM050200 22004KT P6SM BKN250=



000
FTUS42 KGSP 040537
TAFAVL
TAF
KAVL 040537Z 0406/0506 22007KT P6SM BKN050
     FM040900 22005KT P6SM -SHRA BKN050
     FM041100 22006KT 4SM -SHRA VCTS BKN024CB
     FM041500 22009KT P6SM -SHRA VCTS OVC022CB
     FM041800 25008KT P6SM -SHRA VCTS OVC050CB
     FM050200 00000KT P6SM BKN080 OVC250=



000
FTUS42 KGSP 032347
TAFAVL
TAF
KAVL 032347Z 0400/0424 33006KT P6SM VCSH BKN050
     FM040800 33006KT P6SM VCSH OVC025 PROB30 0409/0412 5SM -TSRA
      OVC015CB
     FM041200 33008KT 4SM SHRA BR OVC015
     FM041600 33008KT P6SM SCT020 BKN035 PROB30 0420/0424 5SM -TSRA
      BKN025CB=



000
FTUS42 KGSP 032347
TAFAVL
TAF
KAVL 032347Z 0400/0424 33006KT P6SM VCSH BKN050
     FM040800 33006KT P6SM VCSH OVC025 PROB30 0409/0412 5SM -TSRA
      OVC015CB
     FM041200 33008KT 4SM SHRA BR OVC015
     FM041600 33008KT P6SM SCT020 BKN035 PROB30 0420/0424 5SM -TSRA
      BKN025CB=



000
FTUS42 KGSP 032339
TAFAVL

KAVL 032336Z 0400/0424 33006KT P6SM VCSH BKN050
     FM040800 33006KT P6SM VCSH OVC025 PROB30 0409/0412 5SM -TSRA OVC015CB
     FM041200 33008KT 4SM SHRA BR OVC015
     FM041600 33008KT P6SM SCT020 BKN035 PROB30 0420/0424 5SM- TSRA BKN025CB=



000
FTUS42 KGSP 032339
TAFAVL

KAVL 032336Z 0400/0424 33006KT P6SM VCSH BKN050
     FM040800 33006KT P6SM VCSH OVC025 PROB30 0409/0412 5SM -TSRA OVC015CB
     FM041200 33008KT 4SM SHRA BR OVC015
     FM041600 33008KT P6SM SCT020 BKN035 PROB30 0420/0424 5SM- TSRA BKN025CB=



000
FTUS42 KGSP 032330
TAFGSP
TAF
KGSP 032330Z 0400/0424 24008KT P6SM SCT040 BKN150 PROB30 0409/0413
      5SM -TSRA BKN025CB
     FM041300 24008KT P6SM VCSH BKN025
     FM041500 24008G16KT P6SM BKN040 PROB30 0420/0424 5SM -TSRA
      BKN035CB=



000
FTUS42 KGSP 032321
TAFCLT
TAF
KCLT 032321Z 0400/0424 24006KT P6SM SCT050 BKN120 PROB30 0410/0414
      5SM -TSRA BKN040CB
     FM041700 24008G16KT P6SM BKN050 PROB30 0420/0424 4SM TSRA
      BKN040CB=



000
FTUS42 KGSP 032321
TAFCLT
TAF
KCLT 032321Z 0400/0424 24006KT P6SM SCT050 BKN120 PROB30 0410/0414
      5SM -TSRA BKN040CB
     FM041700 24008G16KT P6SM BKN050 PROB30 0420/0424 4SM TSRA
      BKN040CB=



000
FTUS42 KGSP 032058 AAB
TAFGSP
TAF AMD
KGSP 032058Z 0321/0418 24012G18KT P6SM VCSH SCT035 BKN060
     FM040200 24010KT P6SM SCT050 BKN100
     FM040800 24007KT P6SM BKN015
     FM041300 24011KT P6SM VCSH BKN025=



000
FTUS42 KGSP 032058 AAB
TAFGSP
TAF AMD
KGSP 032058Z 0321/0418 24012G18KT P6SM VCSH SCT035 BKN060
     FM040200 24010KT P6SM SCT050 BKN100
     FM040800 24007KT P6SM BKN015
     FM041300 24011KT P6SM VCSH BKN025=



000
FTUS42 KGSP 032057 AAA
TAFCLT
TAF AMD
KCLT 032057Z 0321/0418 24009G16KT P6SM VCSH SCT035 BKN150
      TEMPO 0321/0323 BKN035
     FM032300 24009KT P6SM VCSH BKN060 OVC120
     FM040300 24006KT P6SM FEW020 SCT060 OVC120
     FM041500 24012KT P6SM VCSH SCT035 BKN050=



000
FTUS42 KGSP 032057 AAA
TAFCLT
TAF AMD
KCLT 032057Z 0321/0418 24009G16KT P6SM VCSH SCT035 BKN150
      TEMPO 0321/0323 BKN035
     FM032300 24009KT P6SM VCSH BKN060 OVC120
     FM040300 24006KT P6SM FEW020 SCT060 OVC120
     FM041500 24012KT P6SM VCSH SCT035 BKN050=



000
FTUS42 KGSP 031736
TAFGSP
TAF
KGSP 031736Z 0318/0418 24012G18KT P6SM VCSH SCT020 BKN060
      TEMPO 0318/0322 -SHRA BKN020 OVC060
     FM032200 25012G20KT P6SM VCSH BKN040 OVC100
     FM040200 24010KT P6SM SCT050 BKN100
     FM040800 24007KT P6SM BKN015
     FM041300 24011KT P6SM VCSH BKN025=



000
FTUS42 KGSP 031736
TAFAVL
TAF
KAVL 031736Z 0318/0418 21008KT P6SM -SHRA SCT025 BKN050 OVC120
     FM032100 30010KT P6SM -SHRA VCTS OVC035CB
     FM040200 32007KT P6SM VCSH OVC035
     FM040800 33006KT P6SM -SHRA OVC025
     FM041200 33008KT 4SM SHRA BR OVC015=



000
FTUS42 KGSP 031736
TAFCLT
TAF
KCLT 031736Z 0318/0418 24009G16KT P6SM VCSH SCT035 BKN120
      TEMPO 0319/0323 TSRA OVC035CB
     FM032300 24009KT P6SM VCSH BKN060 OVC120
     FM040300 24006KT P6SM FEW020 SCT060 OVC120
     FM041500 24012KT P6SM VCSH SCT035 BKN050=



000
FTUS42 KGSP 031736
TAFAVL
TAF
KAVL 031736Z 0318/0418 21008KT P6SM -SHRA SCT025 BKN050 OVC120
     FM032100 30010KT P6SM -SHRA VCTS OVC035CB
     FM040200 32007KT P6SM VCSH OVC035
     FM040800 33006KT P6SM -SHRA OVC025
     FM041200 33008KT 4SM SHRA BR OVC015=



000
FTUS42 KGSP 031736
TAFCLT
TAF
KCLT 031736Z 0318/0418 24009G16KT P6SM VCSH SCT035 BKN120
      TEMPO 0319/0323 TSRA OVC035CB
     FM032300 24009KT P6SM VCSH BKN060 OVC120
     FM040300 24006KT P6SM FEW020 SCT060 OVC120
     FM041500 24012KT P6SM VCSH SCT035 BKN050=



000
FTUS42 KGSP 031626 AAE
TAFAVL
TAF AMD
KAVL 031626Z 0316/0412 18007KT P6SM VCSH SCT030 OVC060
     FM031800 23008KT P6SM VCSH OVC040
     FM032000 26008KT P6SM -SHRA VCTS BKN040CB
     FM040000 29007KT P6SM BKN040
     FM041000 28003KT P6SM OVC020=



000
FTUS42 KGSP 031626 AAE
TAFAVL
TAF AMD
KAVL 031626Z 0316/0412 18007KT P6SM VCSH SCT030 OVC060
     FM031800 23008KT P6SM VCSH OVC040
     FM032000 26008KT P6SM -SHRA VCTS BKN040CB
     FM040000 29007KT P6SM BKN040
     FM041000 28003KT P6SM OVC020=



000
FTUS42 KGSP 031614 AAE
TAFGSP
TAF AMD
KGSP 031614Z 0316/0412 24009KT P6SM VCSH SCT009 OVC035
      TEMPO 0316/0317 -SHRA OVC009
     FM031700 23012G18KT P6SM VCSH BKN035 OVC120
     FM032000 24015G25KT P6SM -SHRA VCTS BKN040CB OVC120
     FM040000 24009KT P6SM BKN120=



000
FTUS42 KGSP 031614 AAE
TAFGSP
TAF AMD
KGSP 031614Z 0316/0412 24009KT P6SM VCSH SCT009 OVC035
      TEMPO 0316/0317 -SHRA OVC009
     FM031700 23012G18KT P6SM VCSH BKN035 OVC120
     FM032000 24015G25KT P6SM -SHRA VCTS BKN040CB OVC120
     FM040000 24009KT P6SM BKN120=



000
FTUS42 KGSP 031612 AAD
TAFCLT
TAF AMD
KCLT 031612Z 0316/0412 23010G17KT P6SM VCSH SCT020 BKN035
      TEMPO 0316/0320 5SM TSRA OVC020CB
     FM032000 24011G18KT P6SM -SHRA BKN040 OVC100
     FM040000 24007KT P6SM SCT050 BKN100=



000
FTUS42 KGSP 031612 AAD
TAFCLT
TAF AMD
KCLT 031612Z 0316/0412 23010G17KT P6SM VCSH SCT020 BKN035
      TEMPO 0316/0320 5SM TSRA OVC020CB
     FM032000 24011G18KT P6SM -SHRA BKN040 OVC100
     FM040000 24007KT P6SM SCT050 BKN100=



000
FTUS42 KGSP 031537 AAD
TAFAVL
TAF AMD
KAVL 031537Z 0316/0412 18007KT 6SM BR VCSH SCT020 OVC060
      TEMPO 0316/0318 5SM -SHRA BR OVC020
     FM031800 23008KT P6SM -SHRA VCTS OVC040CB
     FM032100 26008KT P6SM -SHRA VCTS BKN040CB
     FM040000 29007KT P6SM BKN040
     FM041000 28003KT P6SM OVC020=



000
FTUS42 KGSP 031537 AAD
TAFAVL
TAF AMD
KAVL 031537Z 0316/0412 18007KT 6SM BR VCSH SCT020 OVC060
      TEMPO 0316/0318 5SM -SHRA BR OVC020
     FM031800 23008KT P6SM -SHRA VCTS OVC040CB
     FM032100 26008KT P6SM -SHRA VCTS BKN040CB
     FM040000 29007KT P6SM BKN040
     FM041000 28003KT P6SM OVC020=



000
FTUS42 KGSP 031447 AAC
TAFCLT
TAF AMD
KCLT 031447Z 0315/0412 22008KT 5SM -SHRA BR SCT007 BKN015 OVC030
     FM031600 23010G17KT P6SM -SHRA SCT010 BKN025 OVC035
      TEMPO 0316/0320 3SM TSRA OVC010CB
     FM032000 24011G18KT P6SM -SHRA BKN040 OVC100
     FM040000 24007KT P6SM SCT050 BKN100=



000
FTUS42 KGSP 031447 AAC
TAFCLT
TAF AMD
KCLT 031447Z 0315/0412 22008KT 5SM -SHRA BR SCT007 BKN015 OVC030
     FM031600 23010G17KT P6SM -SHRA SCT010 BKN025 OVC035
      TEMPO 0316/0320 3SM TSRA OVC010CB
     FM032000 24011G18KT P6SM -SHRA BKN040 OVC100
     FM040000 24007KT P6SM SCT050 BKN100=



000
FTUS42 KGSP 031447 AAC
TAFCLT
TAF AMD
KCLT 031447Z 0315/0412 22008KT 5SM -SHRA BR SCT007 BKN015 OVC030
     FM031600 23010G17KT P6SM -SHRA SCT010 BKN025 OVC035
      TEMPO 0316/0320 3SM TSRA OVC010CB
     FM032000 24011G18KT P6SM -SHRA BKN040 OVC100
     FM040000 24007KT P6SM SCT050 BKN100=



000
FTUS42 KGSP 031405 AAB
TAFCLT
TAF AMD
KCLT 031405Z 0314/0412 21006KT P6SM VCSH OVC008
      TEMPO 0315/0316 -SHRA OVC015
     FM031600 23009KT P6SM -SHRA BKN035 OVC100
     FM031800 23011G17KT 4SM -TSRA BKN040CB OVC100
     FM040000 24007KT P6SM BKN100=



000
FTUS42 KGSP 031405 AAB
TAFCLT
TAF AMD
KCLT 031405Z 0314/0412 21006KT P6SM VCSH OVC008
      TEMPO 0315/0316 -SHRA OVC015
     FM031600 23009KT P6SM -SHRA BKN035 OVC100
     FM031800 23011G17KT 4SM -TSRA BKN040CB OVC100
     FM040000 24007KT P6SM BKN100=



000
FTUS42 KGSP 031402 AAC
TAFAVL
TAF AMD
KAVL 031402Z 0314/0412 18007KT 6SM BR VCSH SCT006 OVC060
      TEMPO 0314/0316 5SM -SHRA BR OVC006
     FM031600 21007KT P6SM -SHRA OVC030
     FM031800 23008KT P6SM -SHRA VCTS OVC040CB
     FM032100 26008KT P6SM -SHRA VCTS BKN040CB
     FM040000 29007KT P6SM BKN040
     FM041000 28003KT P6SM OVC020=



000
FTUS42 KGSP 031402 AAC
TAFAVL
TAF AMD
KAVL 031402Z 0314/0412 18007KT 6SM BR VCSH SCT006 OVC060
      TEMPO 0314/0316 5SM -SHRA BR OVC006
     FM031600 21007KT P6SM -SHRA OVC030
     FM031800 23008KT P6SM -SHRA VCTS OVC040CB
     FM032100 26008KT P6SM -SHRA VCTS BKN040CB
     FM040000 29007KT P6SM BKN040
     FM041000 28003KT P6SM OVC020=



000
FTUS42 KGSP 031402 AAC
TAFAVL
TAF AMD
KAVL 031402Z 0314/0412 18007KT 6SM BR VCSH SCT006 OVC060
      TEMPO 0314/0316 5SM -SHRA BR OVC006
     FM031600 21007KT P6SM -SHRA OVC030
     FM031800 23008KT P6SM -SHRA VCTS OVC040CB
     FM032100 26008KT P6SM -SHRA VCTS BKN040CB
     FM040000 29007KT P6SM BKN040
     FM041000 28003KT P6SM OVC020=



000
FTUS42 KGSP 031358 AAB
TAFGSP
TAF AMD
KGSP 031358Z 0314/0412 25007KT P6SM -SHRA SCT008 BKN015 OVC040
      TEMPO 0314/0316 26010G17KT 5SM SHRA BR OVC008
     FM031600 23012G18KT P6SM -SHRA BKN040 OVC120
     FM032000 24015G25KT P6SM -SHRA VCTS BKN040CB OVC120
     FM040000 24009KT P6SM BKN120=



000
FTUS42 KGSP 031358 AAB
TAFGSP
TAF AMD
KGSP 031358Z 0314/0412 25007KT P6SM -SHRA SCT008 BKN015 OVC040
      TEMPO 0314/0316 26010G17KT 5SM SHRA BR OVC008
     FM031600 23012G18KT P6SM -SHRA BKN040 OVC120
     FM032000 24015G25KT P6SM -SHRA VCTS BKN040CB OVC120
     FM040000 24009KT P6SM BKN120=



000
FTUS42 KGSP 031234 AAA
TAFCLT
TAF AMD
KCLT 031234Z 0313/0412 20005KT 3SM BR VCSH OVC005
      TEMPO 0314/0316 6SM -SHRA OVC010
     FM031600 22007KT P6SM -SHRA BKN035 OVC100
     FM031800 23011G17KT 4SM -TSRA BKN040CB OVC100
     FM040000 24007KT P6SM BKN100=



000
FTUS42 KGSP 031234 AAA
TAFCLT
TAF AMD
KCLT 031234Z 0313/0412 20005KT 3SM BR VCSH OVC005
      TEMPO 0314/0316 6SM -SHRA OVC010
     FM031600 22007KT P6SM -SHRA BKN035 OVC100
     FM031800 23011G17KT 4SM -TSRA BKN040CB OVC100
     FM040000 24007KT P6SM BKN100=



000
FTUS42 KGSP 031232 AAC
TAFGSP
TAF AMD
KGSP 031232Z 0313/0412 22006KT P6SM -SHRA SCT007 OVC120
      TEMPO 0313/0315 3SM TSRA BR OVC007CB
     FM031500 23011KT P6SM -SHRA BKN024 OVC100
     FM031600 23012KT P6SM -SHRA VCTS BKN060CB OVC120
     FM032000 24015G25KT P6SM -SHRA VCTS BKN040CB OVC120
     FM040000 24009KT P6SM BKN120=



000
FTUS42 KGSP 031205 AAB
TAFAVL
TAF AMD
KAVL 031205Z 0312/0412 00000KT 6SM BR VCSH SCT003 OVC060
      TEMPO 0312/0315 BKN003 OVC060
     FM031500 25003KT P6SM -SHRA OVC040
     FM031800 23008KT P6SM -SHRA VCTS OVC040CB
     FM032100 26008KT P6SM -SHRA VCTS BKN040CB
     FM040000 29007KT P6SM BKN040
     FM041000 28003KT P6SM OVC020=



000
FTUS42 KGSP 031205 AAB
TAFAVL
TAF AMD
KAVL 031205Z 0312/0412 00000KT 6SM BR VCSH SCT003 OVC060
      TEMPO 0312/0315 BKN003 OVC060
     FM031500 25003KT P6SM -SHRA OVC040
     FM031800 23008KT P6SM -SHRA VCTS OVC040CB
     FM032100 26008KT P6SM -SHRA VCTS BKN040CB
     FM040000 29007KT P6SM BKN040
     FM041000 28003KT P6SM OVC020=



000
FTUS42 KGSP 031205 AAB
TAFAVL
TAF AMD
KAVL 031205Z 0312/0412 00000KT 6SM BR VCSH SCT003 OVC060
      TEMPO 0312/0315 BKN003 OVC060
     FM031500 25003KT P6SM -SHRA OVC040
     FM031800 23008KT P6SM -SHRA VCTS OVC040CB
     FM032100 26008KT P6SM -SHRA VCTS BKN040CB
     FM040000 29007KT P6SM BKN040
     FM041000 28003KT P6SM OVC020=



000
FTUS42 KGSP 031205 AAB
TAFAVL
TAF AMD
KAVL 031205Z 0312/0412 00000KT 6SM BR VCSH SCT003 OVC060
      TEMPO 0312/0315 BKN003 OVC060
     FM031500 25003KT P6SM -SHRA OVC040
     FM031800 23008KT P6SM -SHRA VCTS OVC040CB
     FM032100 26008KT P6SM -SHRA VCTS BKN040CB
     FM040000 29007KT P6SM BKN040
     FM041000 28003KT P6SM OVC020=



000
FTUS42 KGSP 031201 AAA
TAFAVL
TAF AMD
KAVL 031201Z 0312/0412 00000KT 6SM BR VCSH SCT005 OVC060
     FM031500 25003KT P6SM -SHRA OVC040
     FM031800 23008KT P6SM -SHRA VCTS OVC040CB
     FM032100 26008KT P6SM -SHRA VCTS BKN040CB
     FM040000 29007KT P6SM BKN040
     FM041000 28003KT P6SM OVC020=



000
FTUS42 KGSP 031201 AAA
TAFAVL
TAF AMD
KAVL 031201Z 0312/0412 00000KT 6SM BR VCSH SCT005 OVC060
     FM031500 25003KT P6SM -SHRA OVC040
     FM031800 23008KT P6SM -SHRA VCTS OVC040CB
     FM032100 26008KT P6SM -SHRA VCTS BKN040CB
     FM040000 29007KT P6SM BKN040
     FM041000 28003KT P6SM OVC020=



000
FTUS42 KGSP 031201 AAA
TAFAVL
TAF AMD
KAVL 031201Z 0312/0412 00000KT 6SM BR VCSH SCT005 OVC060
     FM031500 25003KT P6SM -SHRA OVC040
     FM031800 23008KT P6SM -SHRA VCTS OVC040CB
     FM032100 26008KT P6SM -SHRA VCTS BKN040CB
     FM040000 29007KT P6SM BKN040
     FM041000 28003KT P6SM OVC020=



000
FTUS42 KGSP 031201 AAA
TAFAVL
TAF AMD
KAVL 031201Z 0312/0412 00000KT 6SM BR VCSH SCT005 OVC060
     FM031500 25003KT P6SM -SHRA OVC040
     FM031800 23008KT P6SM -SHRA VCTS OVC040CB
     FM032100 26008KT P6SM -SHRA VCTS BKN040CB
     FM040000 29007KT P6SM BKN040
     FM041000 28003KT P6SM OVC020=



000
FTUS42 KGSP 031200 AAA
TAFGSP
TAF AMD
KGSP 031200Z 0312/0412 21005KT P6SM -SHRA SCT010 OVC120
      TEMPO 0313/0315 3SM TSRA BR OVC010CB
     FM031500 23011KT P6SM -SHRA BKN024 OVC100
     FM031600 23012KT P6SM -SHRA VCTS BKN060CB OVC120
     FM032000 24015G25KT P6SM -SHRA VCTS BKN040CB OVC120
     FM040000 24009KT P6SM BKN120=



000
FTUS42 KGSP 031200 AAA
TAFGSP
TAF AMD
KGSP 031200Z 0312/0412 21005KT P6SM -SHRA SCT010 OVC120
      TEMPO 0313/0315 3SM TSRA BR OVC010CB
     FM031500 23011KT P6SM -SHRA BKN024 OVC100
     FM031600 23012KT P6SM -SHRA VCTS BKN060CB OVC120
     FM032000 24015G25KT P6SM -SHRA VCTS BKN040CB OVC120
     FM040000 24009KT P6SM BKN120=



000
FTUS42 KGSP 031122
TAFCLT
TAF
KCLT 031122Z 0312/0412 20005KT 4SM -SHRA OVC010
      TEMPO 0312/0316 2SM -SHRA OVC003
     FM031600 22007KT P6SM -SHRA BKN050 OVC100
     FM031800 23011G17KT 4SM -TSRA BKN040CB OVC100
     FM040000 24007KT P6SM BKN100=



000
FTUS42 KGSP 031122
TAFAVL
TAF
KAVL 031122Z 0312/0412 00000KT 5SM -SHRA BR SCT007 OVC025
     FM031500 25003KT P6SM -SHRA OVC040
     FM031800 23008KT P6SM -SHRA VCTS OVC040CB
     FM032100 26008KT P6SM -SHRA VCTS BKN040CB
     FM040000 29007KT P6SM BKN040
     FM041000 28003KT P6SM OVC020=



000
FTUS42 KGSP 031122
TAFGSP
TAF
KGSP 031122Z 0312/0412 21005KT P6SM -SHRA VCTS OVC008CB
     FM031500 23011KT P6SM -SHRA BKN024 OVC100
     FM031600 23012KT P6SM -SHRA VCTS BKN060CB OVC120
     FM032000 24015G25KT P6SM -SHRA VCTS BKN040CB OVC120
     FM040000 24009KT P6SM BKN120=



000
FTUS42 KGSP 031122
TAFCLT
TAF
KCLT 031122Z 0312/0412 20005KT 4SM -SHRA OVC010
      TEMPO 0312/0316 2SM -SHRA OVC003
     FM031600 22007KT P6SM -SHRA BKN050 OVC100
     FM031800 23011G17KT 4SM -TSRA BKN040CB OVC100
     FM040000 24007KT P6SM BKN100=



000
FTUS42 KGSP 031122
TAFAVL
TAF
KAVL 031122Z 0312/0412 00000KT 5SM -SHRA BR SCT007 OVC025
     FM031500 25003KT P6SM -SHRA OVC040
     FM031800 23008KT P6SM -SHRA VCTS OVC040CB
     FM032100 26008KT P6SM -SHRA VCTS BKN040CB
     FM040000 29007KT P6SM BKN040
     FM041000 28003KT P6SM OVC020=



000
FTUS42 KGSP 031122
TAFCLT
TAF
KCLT 031122Z 0312/0412 20005KT 4SM -SHRA OVC010
      TEMPO 0312/0316 2SM -SHRA OVC003
     FM031600 22007KT P6SM -SHRA BKN050 OVC100
     FM031800 23011G17KT 4SM -TSRA BKN040CB OVC100
     FM040000 24007KT P6SM BKN100=



000
FTUS42 KGSP 031122
TAFGSP
TAF
KGSP 031122Z 0312/0412 21005KT P6SM -SHRA VCTS OVC008CB
     FM031500 23011KT P6SM -SHRA BKN024 OVC100
     FM031600 23012KT P6SM -SHRA VCTS BKN060CB OVC120
     FM032000 24015G25KT P6SM -SHRA VCTS BKN040CB OVC120
     FM040000 24009KT P6SM BKN120=



000
FTUS42 KGSP 031122
TAFAVL
TAF
KAVL 031122Z 0312/0412 00000KT 5SM -SHRA BR SCT007 OVC025
     FM031500 25003KT P6SM -SHRA OVC040
     FM031800 23008KT P6SM -SHRA VCTS OVC040CB
     FM032100 26008KT P6SM -SHRA VCTS BKN040CB
     FM040000 29007KT P6SM BKN040
     FM041000 28003KT P6SM OVC020=



000
FTUS42 KGSP 031122
TAFCLT
TAF
KCLT 031122Z 0312/0412 20005KT 4SM -SHRA OVC010
      TEMPO 0312/0316 2SM -SHRA OVC003
     FM031600 22007KT P6SM -SHRA BKN050 OVC100
     FM031800 23011G17KT 4SM -TSRA BKN040CB OVC100
     FM040000 24007KT P6SM BKN100=



000
FTUS42 KGSP 031122
TAFAVL
TAF
KAVL 031122Z 0312/0412 00000KT 5SM -SHRA BR SCT007 OVC025
     FM031500 25003KT P6SM -SHRA OVC040
     FM031800 23008KT P6SM -SHRA VCTS OVC040CB
     FM032100 26008KT P6SM -SHRA VCTS BKN040CB
     FM040000 29007KT P6SM BKN040
     FM041000 28003KT P6SM OVC020=



000
FTUS42 KGSP 030844 AAC
TAFAVL
TAF AMD
KAVL 030844Z 0309/0406 25005KT 6SM BR VCSH FEW003 SCT010 OVC060
      TEMPO 0309/0313 4SM -SHRA BR BKN003 OVC060
     FM031400 25003KT P6SM VCSH OVC040
     FM032000 24006KT 6SM -SHRA VCTS OVC040CB
     FM040100 31008KT P6SM BKN140=



000
FTUS42 KGSP 030844 AAC
TAFAVL
TAF AMD
KAVL 030844Z 0309/0406 25005KT 6SM BR VCSH FEW003 SCT010 OVC060
      TEMPO 0309/0313 4SM -SHRA BR BKN003 OVC060
     FM031400 25003KT P6SM VCSH OVC040
     FM032000 24006KT 6SM -SHRA VCTS OVC040CB
     FM040100 31008KT P6SM BKN140=



000
FTUS42 KGSP 030826 AAA
TAFCLT
TAF AMD
KCLT 030826Z 0308/0406 21004KT P6SM FEW015 BKN100
     FM031300 21005KT P6SM VCSH BKN010 OVC250
     FM031500 22010G15KT 6SM -SHRA SCT040 BKN080 PROB30 0318/0324
      4SM TSRA BKN040CB
     FM040300 24006KT P6SM BKN120 OVC250=



000
FTUS42 KGSP 030826 AAA
TAFCLT
TAF AMD
KCLT 030826Z 0308/0406 21004KT P6SM FEW015 BKN100
     FM031300 21005KT P6SM VCSH BKN010 OVC250
     FM031500 22010G15KT 6SM -SHRA SCT040 BKN080 PROB30 0318/0324
      4SM TSRA BKN040CB
     FM040300 24006KT P6SM BKN120 OVC250=



000
FTUS42 KGSP 030749 CCB
TAFGSP
TAF COR
KGSP 030749Z 0308/0406 22007KT P6SM VCSH BKN004 BKN120
      TEMPO 0309/0313 6SM -SHRA BKN007 OVC100
     FM031400 23012KT 6SM -SHRA BKN035 OVC250
     FM032000 24016G24KT 6SM -SHRA OVC060 PROB30 0320/0324 4SM TSRA
      OVC040CB
     FM040000 25014G22KT P6SM BKN120
     FM040300 24010KT P6SM BKN120=



000
FTUS42 KGSP 030749 CCB
TAFGSP
TAF COR
KGSP 030749Z 0308/0406 22007KT P6SM VCSH BKN004 BKN120
      TEMPO 0309/0313 6SM -SHRA BKN007 OVC100
     FM031400 23012KT 6SM -SHRA BKN035 OVC250
     FM032000 24016G24KT 6SM -SHRA OVC060 PROB30 0320/0324 4SM TSRA
      OVC040CB
     FM040000 25014G22KT P6SM BKN120
     FM040300 24010KT P6SM BKN120=



000
FTUS42 KGSP 030748 AAC
TAFGSP
TAF AMD
KGSP 030748Z 0308/0406 22006KT P6SM VCSH BKN010 BKN120
      TEMPO 0309/0313 6SM -SHRA BKN006 OVC100
     FM031400 23012KT 6SM -SHRA BKN035 OVC250
     FM032000 24016G24KT 6SM -SHRA OVC060 PROB30 0320/0324 4SM TSRA
      OVC040CB
     FM040000 25014G22KT P6SM BKN120
     FM040300 24010KT P6SM BKN120=



000
FTUS42 KGSP 030748 AAC
TAFGSP
TAF AMD
KGSP 030748Z 0308/0406 22006KT P6SM VCSH BKN010 BKN120
      TEMPO 0309/0313 6SM -SHRA BKN006 OVC100
     FM031400 23012KT 6SM -SHRA BKN035 OVC250
     FM032000 24016G24KT 6SM -SHRA OVC060 PROB30 0320/0324 4SM TSRA
      OVC040CB
     FM040000 25014G22KT P6SM BKN120
     FM040300 24010KT P6SM BKN120=



000
FTUS42 KGSP 030717 AAB
TAFAVL
TAF AMD
KAVL 030717Z 0307/0406 00000KT P6SM SCT010 BKN080
     FM030800 00000KT 6SM BR VCSH SCT010 OVC060
      TEMPO 0310/0314 4SM -SHRA BR BKN040
     FM031500 25003KT P6SM OVC040 PROB30 0316/0320 5SM -SHRA OVC030
     FM032000 24006KT 6SM -SHRA VCTS OVC040CB
     FM040100 31008KT P6SM BKN140=



000
FTUS42 KGSP 030717 AAB
TAFAVL
TAF AMD
KAVL 030717Z 0307/0406 00000KT P6SM SCT010 BKN080
     FM030800 00000KT 6SM BR VCSH SCT010 OVC060
      TEMPO 0310/0314 4SM -SHRA BR BKN040
     FM031500 25003KT P6SM OVC040 PROB30 0316/0320 5SM -SHRA OVC030
     FM032000 24006KT 6SM -SHRA VCTS OVC040CB
     FM040100 31008KT P6SM BKN140=



000
FTUS42 KGSP 030716 AAB
TAFGSP
TAF AMD
KGSP 030716Z 0307/0406 22006KT P6SM BKN006 BKN120
     FM030900 23007KT P6SM VCSH OVC010
     FM031600 23012KT 6SM -SHRA BKN035 OVC250
     FM032000 24016G24KT 6SM -SHRA OVC060 PROB30 0320/0324 4SM TSRA
      OVC040CB
     FM040000 25014G22KT P6SM BKN120
     FM040300 24010KT P6SM BKN120=



000
FTUS42 KGSP 030716 AAB
TAFGSP
TAF AMD
KGSP 030716Z 0307/0406 22006KT P6SM BKN006 BKN120
     FM030900 23007KT P6SM VCSH OVC010
     FM031600 23012KT 6SM -SHRA BKN035 OVC250
     FM032000 24016G24KT 6SM -SHRA OVC060 PROB30 0320/0324 4SM TSRA
      OVC040CB
     FM040000 25014G22KT P6SM BKN120
     FM040300 24010KT P6SM BKN120=



000
FTUS42 KGSP 030623 AAA
TAFAVL
TAF AMD
KAVL 030623Z 0306/0406 00000KT P6SM BKN009 BKN080
     FM030800 00000KT 6SM BR VCSH OVC009
      TEMPO 0310/0314 4SM -SHRA BR BKN040
     FM031500 25003KT P6SM OVC040 PROB30 0316/0320 5SM -SHRA OVC030
     FM032000 24006KT 6SM -SHRA VCTS OVC040CB
     FM040100 31008KT P6SM BKN140=



000
FTUS42 KGSP 030623 AAA
TAFAVL
TAF AMD
KAVL 030623Z 0306/0406 00000KT P6SM BKN009 BKN080
     FM030800 00000KT 6SM BR VCSH OVC009
      TEMPO 0310/0314 4SM -SHRA BR BKN040
     FM031500 25003KT P6SM OVC040 PROB30 0316/0320 5SM -SHRA OVC030
     FM032000 24006KT 6SM -SHRA VCTS OVC040CB
     FM040100 31008KT P6SM BKN140=



000
FTUS42 KGSP 030623 AAA
TAFAVL
TAF AMD
KAVL 030623Z 0306/0406 00000KT P6SM BKN009 BKN080
     FM030800 00000KT 6SM BR VCSH OVC009
      TEMPO 0310/0314 4SM -SHRA BR BKN040
     FM031500 25003KT P6SM OVC040 PROB30 0316/0320 5SM -SHRA OVC030
     FM032000 24006KT 6SM -SHRA VCTS OVC040CB
     FM040100 31008KT P6SM BKN140=



000
FTUS42 KGSP 030541 CCA
TAFCLT
TAF COR
KCLT 030541Z 0306/0406 21004KT P6SM BKN008
     FM031300 21005KT P6SM VCSH BKN010 OVC250
     FM031500 22010G15KT 6SM -SHRA SCT040 BKN080 PROB30 0318/0324
      4SM TSRA BKN040CB
     FM040300 24006KT P6SM BKN120 OVC250=



000
FTUS42 KGSP 030541 CCA
TAFCLT
TAF COR
KCLT 030541Z 0306/0406 21004KT P6SM BKN008
     FM031300 21005KT P6SM VCSH BKN010 OVC250
     FM031500 22010G15KT 6SM -SHRA SCT040 BKN080 PROB30 0318/0324
      4SM TSRA BKN040CB
     FM040300 24006KT P6SM BKN120 OVC250=



000
FTUS42 KGSP 030541 CCA
TAFCLT
TAF COR
KCLT 030541Z 0306/0406 21004KT P6SM BKN008
     FM031300 21005KT P6SM VCSH BKN010 OVC250
     FM031500 22010G15KT 6SM -SHRA SCT040 BKN080 PROB30 0318/0324
      4SM TSRA BKN040CB
     FM040300 24006KT P6SM BKN120 OVC250=



000
FTUS42 KGSP 030541 CCA
TAFCLT
TAF COR
KCLT 030541Z 0306/0406 21004KT P6SM BKN008
     FM031300 21005KT P6SM VCSH BKN010 OVC250
     FM031500 22010G15KT 6SM -SHRA SCT040 BKN080 PROB30 0318/0324
      4SM TSRA BKN040CB
     FM040300 24006KT P6SM BKN120 OVC250=



000
FTUS42 KGSP 030539
TAFGSP
TAF
KGSP 030539Z 0306/0406 22006KT P6SM SCT005 BKN120
     FM030900 23007KT P6SM VCSH OVC010
     FM031600 23012KT 6SM -SHRA BKN035 OVC250
     FM032000 24016G24KT 6SM -SHRA OVC060 PROB30 0320/0324 4SM TSRA
      OVC040CB
     FM040000 25014G22KT P6SM BKN120
     FM040300 24010KT P6SM BKN120=



000
FTUS42 KGSP 030539
TAFAVL
TAF
KAVL 030539Z 0306/0406 00000KT P6SM SCT060
     FM030800 00000KT 6SM BR VCSH BKN060
      TEMPO 0310/0314 4SM -SHRA BR BKN040
     FM031500 25003KT P6SM OVC040 PROB30 0316/0320 5SM -SHRA OVC030
     FM032000 24006KT 6SM -SHRA VCTS OVC040CB
     FM040100 31008KT P6SM BKN140=



000
FTUS42 KGSP 030539
TAFCLT
TAF
KCLT 030539Z 0306/0406 21004KT P6SM FEW008 SCT120 OVC250
     FM030700 22004KT P6SM BKN010 OVC250
     FM031300 21005KT P6SM VCSH BKN010 OVC250
     FM031500 22010G15KT 6SM -SHRA SCT040 BKN080 PROB30 0318/0324
      4SM TSRA BKN040CB
     FM040300 24006KT P6SM BKN120 OVC250=



000
FTUS42 KGSP 030539
TAFAVL
TAF
KAVL 030539Z 0306/0406 00000KT P6SM SCT060
     FM030800 00000KT 6SM BR VCSH BKN060
      TEMPO 0310/0314 4SM -SHRA BR BKN040
     FM031500 25003KT P6SM OVC040 PROB30 0316/0320 5SM -SHRA OVC030
     FM032000 24006KT 6SM -SHRA VCTS OVC040CB
     FM040100 31008KT P6SM BKN140=



000
FTUS42 KGSP 030539
TAFCLT
TAF
KCLT 030539Z 0306/0406 21004KT P6SM FEW008 SCT120 OVC250
     FM030700 22004KT P6SM BKN010 OVC250
     FM031300 21005KT P6SM VCSH BKN010 OVC250
     FM031500 22010G15KT 6SM -SHRA SCT040 BKN080 PROB30 0318/0324
      4SM TSRA BKN040CB
     FM040300 24006KT P6SM BKN120 OVC250=



000
FTUS42 KGSP 030539
TAFGSP
TAF
KGSP 030539Z 0306/0406 22006KT P6SM SCT005 BKN120
     FM030900 23007KT P6SM VCSH OVC010
     FM031600 23012KT 6SM -SHRA BKN035 OVC250
     FM032000 24016G24KT 6SM -SHRA OVC060 PROB30 0320/0324 4SM TSRA
      OVC040CB
     FM040000 25014G22KT P6SM BKN120
     FM040300 24010KT P6SM BKN120=



000
FTUS42 KGSP 030539
TAFAVL
TAF
KAVL 030539Z 0306/0406 00000KT P6SM SCT060
     FM030800 00000KT 6SM BR VCSH BKN060
      TEMPO 0310/0314 4SM -SHRA BR BKN040
     FM031500 25003KT P6SM OVC040 PROB30 0316/0320 5SM -SHRA OVC030
     FM032000 24006KT 6SM -SHRA VCTS OVC040CB
     FM040100 31008KT P6SM BKN140=



000
FTUS42 KGSP 030539
TAFCLT
TAF
KCLT 030539Z 0306/0406 21004KT P6SM FEW008 SCT120 OVC250
     FM030700 22004KT P6SM BKN010 OVC250
     FM031300 21005KT P6SM VCSH BKN010 OVC250
     FM031500 22010G15KT 6SM -SHRA SCT040 BKN080 PROB30 0318/0324
      4SM TSRA BKN040CB
     FM040300 24006KT P6SM BKN120 OVC250=



000
FTUS42 KGSP 030539
TAFAVL
TAF
KAVL 030539Z 0306/0406 00000KT P6SM SCT060
     FM030800 00000KT 6SM BR VCSH BKN060
      TEMPO 0310/0314 4SM -SHRA BR BKN040
     FM031500 25003KT P6SM OVC040 PROB30 0316/0320 5SM -SHRA OVC030
     FM032000 24006KT 6SM -SHRA VCTS OVC040CB
     FM040100 31008KT P6SM BKN140=



000
FTUS42 KGSP 030539
TAFCLT
TAF
KCLT 030539Z 0306/0406 21004KT P6SM FEW008 SCT120 OVC250
     FM030700 22004KT P6SM BKN010 OVC250
     FM031300 21005KT P6SM VCSH BKN010 OVC250
     FM031500 22010G15KT 6SM -SHRA SCT040 BKN080 PROB30 0318/0324
      4SM TSRA BKN040CB
     FM040300 24006KT P6SM BKN120 OVC250=



000
FTUS42 KGSP 030451 AAC
TAFGSP
TAF AMD
KGSP 030451Z 0305/0324 24008KT P6SM SCT020 BKN110
      TEMPO 0305/0306 BKN008
     FM031500 23012KT P6SM VCSH BKN060 PROB30 0316/0318 4SM TSRA
      BKN040CB=



000
FTUS42 KGSP 030451 AAC
TAFGSP
TAF AMD
KGSP 030451Z 0305/0324 24008KT P6SM SCT020 BKN110
      TEMPO 0305/0306 BKN008
     FM031500 23012KT P6SM VCSH BKN060 PROB30 0316/0318 4SM TSRA
      BKN040CB=



000
FTUS42 KGSP 030222 AAA
TAFCLT
TAF AMD
KCLT 030222Z 0302/0324 25005KT P6SM SCT120 BKN250
     FM031500 22010KT P6SM VCSH BKN050 PROB30 0316/0318 4SM TSRA
      BKN040CB=



000
FTUS42 KGSP 030222 AAA
TAFCLT
TAF AMD
KCLT 030222Z 0302/0324 25005KT P6SM SCT120 BKN250
     FM031500 22010KT P6SM VCSH BKN050 PROB30 0316/0318 4SM TSRA
      BKN040CB=



000
FTUS42 KGSP 022337
TAFAVL
TAF
KAVL 022337Z 0300/0324 VRB04KT P6SM BKN110
     FM030800 32005KT 3SM BR VCSH OVC020
     FM031400 30005KT 4SM -SHRA VCTS OVC035CB=



000
FTUS42 KGSP 022337
TAFGSP
TAF
KGSP 022337Z 0300/0324 24008KT P6SM BKN110
     FM031500 23012KT P6SM VCSH BKN060 PROB30 0316/0318 4SM TSRA
      BKN040CB=



000
FTUS42 KGSP 022337
TAFCLT
TAF
KCLT 022337Z 0300/0324 23010KT P6SM FEW040 SCT150 BKN250
     FM030600 24005KT P6SM BKN100
     FM031500 22010KT P6SM VCSH BKN050 PROB30 0316/0318 4SM TSRA
      BKN040CB=



000
FTUS42 KGSP 022337
TAFGSP
TAF
KGSP 022337Z 0300/0324 24008KT P6SM BKN110
     FM031500 23012KT P6SM VCSH BKN060 PROB30 0316/0318 4SM TSRA
      BKN040CB=



000
FTUS42 KGSP 022337
TAFCLT
TAF
KCLT 022337Z 0300/0324 23010KT P6SM FEW040 SCT150 BKN250
     FM030600 24005KT P6SM BKN100
     FM031500 22010KT P6SM VCSH BKN050 PROB30 0316/0318 4SM TSRA
      BKN040CB=



000
FTUS42 KGSP 022337
TAFAVL
TAF
KAVL 022337Z 0300/0324 VRB04KT P6SM BKN110
     FM030800 32005KT 3SM BR VCSH OVC020
     FM031400 30005KT 4SM -SHRA VCTS OVC035CB=



000
FTUS42 KGSP 022337
TAFCLT
TAF
KCLT 022337Z 0300/0324 23010KT P6SM FEW040 SCT150 BKN250
     FM030600 24005KT P6SM BKN100
     FM031500 22010KT P6SM VCSH BKN050 PROB30 0316/0318 4SM TSRA
      BKN040CB=



000
FTUS42 KGSP 022337
TAFAVL
TAF
KAVL 022337Z 0300/0324 VRB04KT P6SM BKN110
     FM030800 32005KT 3SM BR VCSH OVC020
     FM031400 30005KT 4SM -SHRA VCTS OVC035CB=



000
FTUS42 KGSP 022337
TAFCLT
TAF
KCLT 022337Z 0300/0324 23010KT P6SM FEW040 SCT150 BKN250
     FM030600 24005KT P6SM BKN100
     FM031500 22010KT P6SM VCSH BKN050 PROB30 0316/0318 4SM TSRA
      BKN040CB=



000
FTUS42 KGSP 022019 AAA
TAFCLT
TAF AMD
KCLT 022019Z 0220/0318 26011KT P6SM SCT045 SCT110
     FM030600 24004KT P6SM SCT050 BKN100
     FM031500 22010KT P6SM VCSH BKN050 PROB30 0316/0318 4SM TSRA
      BKN040CB=



000
FTUS42 KGSP 022019 AAA
TAFCLT
TAF AMD
KCLT 022019Z 0220/0318 26011KT P6SM SCT045 SCT110
     FM030600 24004KT P6SM SCT050 BKN100
     FM031500 22010KT P6SM VCSH BKN050 PROB30 0316/0318 4SM TSRA
      BKN040CB=



000
FTUS42 KGSP 021840 AAA
TAFGSP
TAF AMD
KGSP 021840Z 0219/0318 24010KT P6SM -SHRA SCT030 BKN050
     FM030000 24008KT P6SM VCSH OVC050
     FM031500 23012KT P6SM VCSH BKN060 PROB30 0316/0318 4SM TSRA
      BKN040CB=



000
FTUS42 KGSP 021840 AAA
TAFGSP
TAF AMD
KGSP 021840Z 0219/0318 24010KT P6SM -SHRA SCT030 BKN050
     FM030000 24008KT P6SM VCSH OVC050
     FM031500 23012KT P6SM VCSH BKN060 PROB30 0316/0318 4SM TSRA
      BKN040CB=



000
FTUS42 KGSP 021726
TAFAVL
TAF
KAVL 021726Z 0218/0318 32006KT 6SM -SHRA OVC050
     FM022100 VRB05KT P6SM -SHRA VCTS OVC040CB
     FM030300 VRB04KT P6SM -SHRA OVC035
     FM030800 33005KT 3SM -SHRA BR OVC020
     FM031400 30005KT 4SM -SHRA VCTS OVC035CB=



000
FTUS42 KGSP 021726
TAFGSP
TAF
KGSP 021726Z 0218/0318 24011G17KT P6SM -SHRA BKN050
      TEMPO 0218/0221 30010G25KT 4SM TSRA BR OVC035CB
     FM022100 24011KT P6SM -SHRA BKN050
     FM030000 24008KT P6SM VCSH OVC050
     FM031500 23012KT P6SM VCSH BKN060 PROB30 0316/0318 4SM TSRA
      BKN040CB=



000
FTUS42 KGSP 021726
TAFCLT
TAF
KCLT 021726Z 0218/0318 24011G17KT P6SM VCSH SCT035 BKN060
      TEMPO 0219/0223 4SM TSRA BKN035CB
     FM030100 24006KT P6SM VCSH OVC060
     FM030600 22005KT P6SM SCT050 BKN100
     FM031500 22010KT P6SM VCSH BKN050 PROB30 0316/0318 4SM TSRA
      BKN040CB=



000
FTUS42 KGSP 021726
TAFAVL
TAF
KAVL 021726Z 0218/0318 32006KT 6SM -SHRA OVC050
     FM022100 VRB05KT P6SM -SHRA VCTS OVC040CB
     FM030300 VRB04KT P6SM -SHRA OVC035
     FM030800 33005KT 3SM -SHRA BR OVC020
     FM031400 30005KT 4SM -SHRA VCTS OVC035CB=



000
FTUS42 KGSP 021726
TAFCLT
TAF
KCLT 021726Z 0218/0318 24011G17KT P6SM VCSH SCT035 BKN060
      TEMPO 0219/0223 4SM TSRA BKN035CB
     FM030100 24006KT P6SM VCSH OVC060
     FM030600 22005KT P6SM SCT050 BKN100
     FM031500 22010KT P6SM VCSH BKN050 PROB30 0316/0318 4SM TSRA
      BKN040CB=



000
FTUS42 KGSP 021726
TAFGSP
TAF
KGSP 021726Z 0218/0318 24011G17KT P6SM -SHRA BKN050
      TEMPO 0218/0221 30010G25KT 4SM TSRA BR OVC035CB
     FM022100 24011KT P6SM -SHRA BKN050
     FM030000 24008KT P6SM VCSH OVC050
     FM031500 23012KT P6SM VCSH BKN060 PROB30 0316/0318 4SM TSRA
      BKN040CB=



000
FTUS42 KGSP 021726
TAFAVL
TAF
KAVL 021726Z 0218/0318 32006KT 6SM -SHRA OVC050
     FM022100 VRB05KT P6SM -SHRA VCTS OVC040CB
     FM030300 VRB04KT P6SM -SHRA OVC035
     FM030800 33005KT 3SM -SHRA BR OVC020
     FM031400 30005KT 4SM -SHRA VCTS OVC035CB=



000
FTUS42 KGSP 021726
TAFCLT
TAF
KCLT 021726Z 0218/0318 24011G17KT P6SM VCSH SCT035 BKN060
      TEMPO 0219/0223 4SM TSRA BKN035CB
     FM030100 24006KT P6SM VCSH OVC060
     FM030600 22005KT P6SM SCT050 BKN100
     FM031500 22010KT P6SM VCSH BKN050 PROB30 0316/0318 4SM TSRA
      BKN040CB=



000
FTUS42 KGSP 021726
TAFCLT
TAF
KCLT 021726Z 0218/0318 24011G17KT P6SM VCSH SCT035 BKN060
      TEMPO 0219/0223 4SM TSRA BKN035CB
     FM030100 24006KT P6SM VCSH OVC060
     FM030600 22005KT P6SM SCT050 BKN100
     FM031500 22010KT P6SM VCSH BKN050 PROB30 0316/0318 4SM TSRA
      BKN040CB=



000
FTUS42 KGSP 021726
TAFAVL
TAF
KAVL 021726Z 0218/0318 32006KT 6SM -SHRA OVC050
     FM022100 VRB05KT P6SM -SHRA VCTS OVC040CB
     FM030300 VRB04KT P6SM -SHRA OVC035
     FM030800 33005KT 3SM -SHRA BR OVC020
     FM031400 30005KT 4SM -SHRA VCTS OVC035CB=



000
FTUS42 KGSP 021501 AAB
TAFAVL
TAF AMD
KAVL 021501Z 0215/0312 32006KT 6SM -SHRA BR OVC060
      TEMPO 0217/0221 4SM TSRA BKN040CB
     FM022100 33004KT P6SM -SHRA VCTS OVC040CB
     FM030800 33003KT P6SM -SHRA BKN020=



000
FTUS42 KGSP 021501 AAB
TAFAVL
TAF AMD
KAVL 021501Z 0215/0312 32006KT 6SM -SHRA BR OVC060
      TEMPO 0217/0221 4SM TSRA BKN040CB
     FM022100 33004KT P6SM -SHRA VCTS OVC040CB
     FM030800 33003KT P6SM -SHRA BKN020=



000
FTUS42 KGSP 021501 AAB
TAFAVL
TAF AMD
KAVL 021501Z 0215/0312 32006KT 6SM -SHRA BR OVC060
      TEMPO 0217/0221 4SM TSRA BKN040CB
     FM022100 33004KT P6SM -SHRA VCTS OVC040CB
     FM030800 33003KT P6SM -SHRA BKN020=



000
FTUS42 KGSP 021501 AAB
TAFAVL
TAF AMD
KAVL 021501Z 0215/0312 32006KT 6SM -SHRA BR OVC060
      TEMPO 0217/0221 4SM TSRA BKN040CB
     FM022100 33004KT P6SM -SHRA VCTS OVC040CB
     FM030800 33003KT P6SM -SHRA BKN020=



000
FTUS42 KGSP 021444 AAA
TAFCLT
TAF AMD
KCLT 021444Z 0215/0312 25008KT P6SM VCSH BKN080
     FM021800 24011G18KT P6SM VCSH BKN060
      TEMPO 0219/0223 4SM TSRA BKN040CB
     FM030000 25005KT P6SM VCSH BKN050=



000
FTUS42 KGSP 021444 AAA
TAFCLT
TAF AMD
KCLT 021444Z 0215/0312 25008KT P6SM VCSH BKN080
     FM021800 24011G18KT P6SM VCSH BKN060
      TEMPO 0219/0223 4SM TSRA BKN040CB
     FM030000 25005KT P6SM VCSH BKN050=



000
FTUS42 KGSP 021400 AAA
TAFAVL
TAF AMD
KAVL 021400Z 0214/0312 32006KT 5SM -SHRA BR OVC060
      TEMPO 0217/0221 4SM TSRA BKN040CB
     FM022100 33004KT P6SM -SHRA VCTS OVC040CB
     FM030800 33003KT P6SM -SHRA BKN020=



000
FTUS42 KGSP 021400 AAA
TAFAVL
TAF AMD
KAVL 021400Z 0214/0312 32006KT 5SM -SHRA BR OVC060
      TEMPO 0217/0221 4SM TSRA BKN040CB
     FM022100 33004KT P6SM -SHRA VCTS OVC040CB
     FM030800 33003KT P6SM -SHRA BKN020=



000
FTUS42 KGSP 021400 AAA
TAFAVL
TAF AMD
KAVL 021400Z 0214/0312 32006KT 5SM -SHRA BR OVC060
      TEMPO 0217/0221 4SM TSRA BKN040CB
     FM022100 33004KT P6SM -SHRA VCTS OVC040CB
     FM030800 33003KT P6SM -SHRA BKN020=



000
FTUS42 KGSP 021347 AAB
TAFGSP
TAF AMD
KGSP 021347Z 0214/0312 24008KT P6SM VCSH SCT013 BKN080
     FM021600 23012G20KT P6SM -SHRA BKN060
      TEMPO 0218/0221 4SM TSRA BKN040CB
     FM022100 24012G20KT P6SM VCTS BKN050CB
     FM030100 23006KT P6SM OVC080
     FM030900 22008KT P6SM BKN020=



000
FTUS42 KGSP 021120
TAFGSP
TAF
KGSP 021120Z 0212/0312 25007KT P6SM VCSH SCT080 OVC100
     FM021600 23012G20KT P6SM -SHRA BKN060
      TEMPO 0218/0221 4SM TSRA BKN040CB
     FM022100 24012G20KT P6SM BKN050 PROB30 0221/0301 4SM TSRA
      BKN040CB
     FM030100 23006KT P6SM OVC080
     FM030900 22008KT P6SM BKN020=



000
FTUS42 KGSP 021120
TAFAVL
TAF
KAVL 021120Z 0212/0312 VRB03KT P6SM OVC080
     FM021400 33003KT P6SM BKN060
      TEMPO 0217/0221 4SM TSRA BKN040CB
     FM022100 33004KT P6SM OVC040 PROB30 0221/0301 4SM TSRA OVC030CB
     FM030800 33003KT P6SM -SHRA BKN020=



000
FTUS42 KGSP 021120
TAFCLT
TAF
KCLT 021120Z 0212/0312 23005KT P6SM OVC090
     FM021400 24006KT P6SM VCSH BKN060
     FM021900 23010G17KT P6SM BKN060
      TEMPO 0219/0223 4SM TSRA BKN040CB
     FM022300 25005KT P6SM BKN050 PROB30 0223/0303 4SM TSRA
      BKN040CB=



000
FTUS42 KGSP 021120
TAFGSP
TAF
KGSP 021120Z 0212/0312 25007KT P6SM VCSH SCT080 OVC100
     FM021600 23012G20KT P6SM -SHRA BKN060
      TEMPO 0218/0221 4SM TSRA BKN040CB
     FM022100 24012G20KT P6SM BKN050 PROB30 0221/0301 4SM TSRA
      BKN040CB
     FM030100 23006KT P6SM OVC080
     FM030900 22008KT P6SM BKN020=



000
FTUS42 KGSP 021120
TAFAVL
TAF
KAVL 021120Z 0212/0312 VRB03KT P6SM OVC080
     FM021400 33003KT P6SM BKN060
      TEMPO 0217/0221 4SM TSRA BKN040CB
     FM022100 33004KT P6SM OVC040 PROB30 0221/0301 4SM TSRA OVC030CB
     FM030800 33003KT P6SM -SHRA BKN020=



000
FTUS42 KGSP 021120
TAFCLT
TAF
KCLT 021120Z 0212/0312 23005KT P6SM OVC090
     FM021400 24006KT P6SM VCSH BKN060
     FM021900 23010G17KT P6SM BKN060
      TEMPO 0219/0223 4SM TSRA BKN040CB
     FM022300 25005KT P6SM BKN050 PROB30 0223/0303 4SM TSRA
      BKN040CB=



000
FTUS42 KGSP 021120
TAFAVL
TAF
KAVL 021120Z 0212/0312 VRB03KT P6SM OVC080
     FM021400 33003KT P6SM BKN060
      TEMPO 0217/0221 4SM TSRA BKN040CB
     FM022100 33004KT P6SM OVC040 PROB30 0221/0301 4SM TSRA OVC030CB
     FM030800 33003KT P6SM -SHRA BKN020=



000
FTUS42 KGSP 021120
TAFCLT
TAF
KCLT 021120Z 0212/0312 23005KT P6SM OVC090
     FM021400 24006KT P6SM VCSH BKN060
     FM021900 23010G17KT P6SM BKN060
      TEMPO 0219/0223 4SM TSRA BKN040CB
     FM022300 25005KT P6SM BKN050 PROB30 0223/0303 4SM TSRA
      BKN040CB=



000
FTUS42 KGSP 021120
TAFCLT
TAF
KCLT 021120Z 0212/0312 23005KT P6SM OVC090
     FM021400 24006KT P6SM VCSH BKN060
     FM021900 23010G17KT P6SM BKN060
      TEMPO 0219/0223 4SM TSRA BKN040CB
     FM022300 25005KT P6SM BKN050 PROB30 0223/0303 4SM TSRA
      BKN040CB=



000
FTUS42 KGSP 021035 AAA
TAFAVL
TAF AMD
KAVL 021035Z 0211/0306 VRB03KT P6SM BKN100
     FM021300 31003KT P6SM VCSH BKN060
      TEMPO 0217/0221 4SM TSRA BKN030CB
     FM030100 21005KT P6SM OVC045=



000
FTUS42 KGSP 021035 AAA
TAFAVL
TAF AMD
KAVL 021035Z 0211/0306 VRB03KT P6SM BKN100
     FM021300 31003KT P6SM VCSH BKN060
      TEMPO 0217/0221 4SM TSRA BKN030CB
     FM030100 21005KT P6SM OVC045=



    US Dept of Commerce
    National Oceanic and Atmospheric Administration
    National Weather Service
    1325 East West Highway
    Silver Spring, MD 20910
    Page Author: NWS Internet Services Team
Disclaimer
Information Quality
Credits
Glossary
Privacy Policy
Freedom of Information Act (FOIA)
About Us
Career Opportunities